sensor_id;sensor_type;location;lat;lon;timestamp;P1;durP1;ratioP1;P2;durP2;ratioP2
49590;SDS011;35496;-21.974;-46.800;2022-10-29T00:02:03;3.72;;;2.85;;
49590;SDS011;35496;-21.974;-46.800;2022-10-29T00:04:29;4.55;;;3.30;;
49590;SDS011;35496;-21.974;-46.800;2022-10-29T00:06:55;6.20;;;2.35;;
49590;SDS011;35496;-21.974;-46.800;2022-10-29T00:09:21;2.13;;;1.80;;
49590;SDS011;35496;-21.974;-46.800;2022-10-29T00:11:47;2.60;;;1.95;;
49590;SDS011;35496;-21.974;-46.800;2022-10-29T00:14:14;2.78;;;2.38;;
49590;SDS011;35496;-21.974;-46.800;2022-10-29T00:16:40;4.90;;;2.60;;
49590;SDS011;35496;-21.974;-46.800;2022-10-29T00:19:06;2.50;;;1.92;;
49590;SDS011;35496;-21.974;-46.800;2022-10-29T00:21:33;5.97;;;2.38;;
49590;SDS011;35496;-21.974;-46.800;2022-10-29T00:23:59;4.22;;;3.40;;
49590;SDS011;35496;-21.974;-46.800;2022-10-29T00:26:26;2.95;;;2.67;;
49590;SDS011;35496;-21.974;-46.800;2022-10-29T00:28:53;2.33;;;2.13;;
49590;SDS011;35496;-21.974;-46.800;2022-10-29T00:31:20;4.15;;;2.13;;
49590;SDS011;35496;-21.974;-46.800;2022-10-29T00:33:50;5.65;;;1.80;;
49590;SDS011;35496;-21.974;-46.800;2022-10-29T00:36:17;5.50;;;3.08;;
49590;SDS011;35496;-21.974;-46.800;2022-10-29T00:38:43;3.25;;;2.20;;
49590;SDS011;35496;-21.974;-46.800;2022-10-29T00:41:11;6.22;;;4.13;;
49590;SDS011;35496;-21.974;-46.800;2022-10-29T00:43:38;3.75;;;2.97;;
49590;SDS011;35496;-21.974;-46.800;2022-10-29T00:46:10;2.58;;;2.20;;
49590;SDS011;35496;-21.974;-46.800;2022-10-29T00:48:46;4.05;;;2.13;;
49590;SDS011;35496;-21.974;-46.800;2022-10-29T00:51:13;1.83;;;1.73;;
49590;SDS011;35496;-21.974;-46.800;2022-10-29T00:54:14;6.45;;;2.45;;
49590;SDS011;35496;-21.974;-46.800;2022-10-29T00:56:33;6.68;;;2.80;;
49590;SDS011;35496;-21.974;-46.800;2022-10-29T00:59:00;3.80;;;2.90;;
49590;SDS011;35496;-21.974;-46.800;2022-10-29T01:01:26;3.55;;;2.65;;
49590;SDS011;35496;-21.974;-46.800;2022-10-29T01:03:52;2.30;;;2.10;;
49590;SDS011;35496;-21.974;-46.800;2022-10-29T01:06:19;1.95;;;1.70;;
49590;SDS011;35496;-21.974;-46.800;2022-10-29T01:08:46;11.68;;;3.03;;
49590;SDS011;35496;-21.974;-46.800;2022-10-29T01:16:21;3.53;;;1.70;;
49590;SDS011;35496;-21.974;-46.800;2022-10-29T01:21:45;7.53;;;2.38;;
49590;SDS011;35496;-21.974;-46.800;2022-10-29T01:24:31;1.88;;;1.77;;
49590;SDS011;35496;-21.974;-46.800;2022-10-29T01:29:50;3.40;;;2.40;;
49590;SDS011;35496;-21.974;-46.800;2022-10-29T01:32:27;3.50;;;2.17;;
49590;SDS011;35496;-21.974;-46.800;2022-10-29T01:38:02;5.38;;;2.42;;
49590;SDS011;35496;-21.974;-46.800;2022-10-29T01:46:00;3.85;;;1.92;;
49590;SDS011;35496;-21.974;-46.800;2022-10-29T01:48:30;3.60;;;1.88;;
49590;SDS011;35496;-21.974;-46.800;2022-10-29T01:50:57;3.58;;;2.42;;
49590;SDS011;35496;-21.974;-46.800;2022-10-29T01:53:25;3.85;;;1.92;;
49590;SDS011;35496;-21.974;-46.800;2022-10-29T01:55:52;4.18;;;3.00;;
49590;SDS011;35496;-21.974;-46.800;2022-10-29T01:58:18;2.85;;;2.53;;
49590;SDS011;35496;-21.974;-46.800;2022-10-29T02:06:14;1.90;;;1.75;;
49590;SDS011;35496;-21.974;-46.800;2022-10-29T02:11:26;2.05;;;1.95;;
49590;SDS011;35496;-21.974;-46.800;2022-10-29T02:16:21;2.05;;;1.92;;
49590;SDS011;35496;-21.974;-46.800;2022-10-29T02:18:49;3.03;;;2.28;;
49590;SDS011;35496;-21.974;-46.800;2022-10-29T02:21:15;2.55;;;2.15;;
49590;SDS011;35496;-21.974;-46.800;2022-10-29T02:23:42;2.85;;;2.40;;
49590;SDS011;35496;-21.974;-46.800;2022-10-29T02:26:08;5.32;;;2.85;;
49590;SDS011;35496;-21.974;-46.800;2022-10-29T02:28:34;6.03;;;3.17;;
49590;SDS011;35496;-21.974;-46.800;2022-10-29T02:31:00;3.90;;;3.28;;
49590;SDS011;35496;-21.974;-46.800;2022-10-29T02:33:26;3.00;;;2.67;;
49590;SDS011;35496;-21.974;-46.800;2022-10-29T02:35:52;12.80;;;4.15;;
49590;SDS011;35496;-21.974;-46.800;2022-10-29T02:38:18;3.75;;;2.47;;
49590;SDS011;35496;-21.974;-46.800;2022-10-29T02:40:45;4.57;;;3.55;;
49590;SDS011;35496;-21.974;-46.800;2022-10-29T02:43:11;4.40;;;3.03;;
49590;SDS011;35496;-21.974;-46.800;2022-10-29T02:45:37;5.28;;;2.92;;
49590;SDS011;35496;-21.974;-46.800;2022-10-29T02:48:03;3.55;;;2.55;;
49590;SDS011;35496;-21.974;-46.800;2022-10-29T02:50:29;8.65;;;3.45;;
49590;SDS011;35496;-21.974;-46.800;2022-10-29T02:52:55;7.45;;;3.13;;
49590;SDS011;35496;-21.974;-46.800;2022-10-29T02:55:21;6.68;;;3.15;;
49590;SDS011;35496;-21.974;-46.800;2022-10-29T02:57:47;7.18;;;3.22;;
49590;SDS011;35496;-21.974;-46.800;2022-10-29T03:00:13;4.10;;;2.70;;
49590;SDS011;35496;-21.974;-46.800;2022-10-29T03:02:39;6.65;;;2.25;;
49590;SDS011;35496;-21.974;-46.800;2022-10-29T03:05:06;5.40;;;2.30;;
49590;SDS011;35496;-21.974;-46.800;2022-10-29T03:07:36;3.00;;;2.63;;
49590;SDS011;35496;-21.974;-46.800;2022-10-29T03:10:06;6.00;;;2.25;;
49590;SDS011;35496;-21.974;-46.800;2022-10-29T03:12:32;5.80;;;2.45;;
49590;SDS011;35496;-21.974;-46.800;2022-10-29T03:14:58;3.92;;;2.97;;
49590;SDS011;35496;-21.974;-46.800;2022-10-29T03:17:25;2.25;;;2.05;;
49590;SDS011;35496;-21.974;-46.800;2022-10-29T03:19:51;4.15;;;3.75;;
49590;SDS011;35496;-21.974;-46.800;2022-10-29T03:22:17;5.45;;;2.47;;
49590;SDS011;35496;-21.974;-46.800;2022-10-29T03:24:43;6.15;;;2.70;;
49590;SDS011;35496;-21.974;-46.800;2022-10-29T03:27:09;3.83;;;2.45;;
49590;SDS011;35496;-21.974;-46.800;2022-10-29T03:29:35;6.22;;;2.80;;
49590;SDS011;35496;-21.974;-46.800;2022-10-29T03:32:01;3.95;;;2.97;;
49590;SDS011;35496;-21.974;-46.800;2022-10-29T03:34:27;3.20;;;2.78;;
49590;SDS011;35496;-21.974;-46.800;2022-10-29T03:36:53;2.38;;;2.17;;
49590;SDS011;35496;-21.974;-46.800;2022-10-29T03:39:19;3.95;;;3.50;;
49590;SDS011;35496;-21.974;-46.800;2022-10-29T03:41:45;4.13;;;2.67;;
49590;SDS011;35496;-21.974;-46.800;2022-10-29T03:44:11;2.47;;;2.28;;
49590;SDS011;35496;-21.974;-46.800;2022-10-29T03:46:37;4.07;;;3.05;;
49590;SDS011;35496;-21.974;-46.800;2022-10-29T03:49:03;3.22;;;2.45;;
49590;SDS011;35496;-21.974;-46.800;2022-10-29T03:51:29;4.40;;;2.75;;
49590;SDS011;35496;-21.974;-46.800;2022-10-29T03:53:55;4.40;;;3.53;;
49590;SDS011;35496;-21.974;-46.800;2022-10-29T03:56:21;3.63;;;2.40;;
49590;SDS011;35496;-21.974;-46.800;2022-10-29T03:58:47;4.55;;;3.08;;
49590;SDS011;35496;-21.974;-46.800;2022-10-29T04:01:13;6.00;;;2.92;;
49590;SDS011;35496;-21.974;-46.800;2022-10-29T04:03:40;3.22;;;2.80;;
49590;SDS011;35496;-21.974;-46.800;2022-10-29T04:06:13;11.27;;;3.38;;
49590;SDS011;35496;-21.974;-46.800;2022-10-29T04:08:39;5.18;;;3.38;;
49590;SDS011;35496;-21.974;-46.800;2022-10-29T04:11:07;6.55;;;4.60;;
49590;SDS011;35496;-21.974;-46.800;2022-10-29T04:13:33;5.65;;;3.05;;
49590;SDS011;35496;-21.974;-46.800;2022-10-29T04:15:59;6.50;;;3.90;;
49590;SDS011;35496;-21.974;-46.800;2022-10-29T04:18:25;5.75;;;4.05;;
49590;SDS011;35496;-21.974;-46.800;2022-10-29T04:20:52;4.95;;;3.75;;
49590;SDS011;35496;-21.974;-46.800;2022-10-29T04:23:21;4.70;;;3.33;;
49590;SDS011;35496;-21.974;-46.800;2022-10-29T04:25:54;9.05;;;3.35;;
49590;SDS011;35496;-21.974;-46.800;2022-10-29T04:28:20;5.40;;;2.83;;
49590;SDS011;35496;-21.974;-46.800;2022-10-29T04:30:47;3.30;;;3.00;;
49590;SDS011;35496;-21.974;-46.800;2022-10-29T04:33:13;5.07;;;2.78;;
49590;SDS011;35496;-21.974;-46.800;2022-10-29T04:35:39;7.05;;;3.72;;
49590;SDS011;35496;-21.974;-46.800;2022-10-29T04:38:08;4.10;;;2.92;;
49590;SDS011;35496;-21.974;-46.800;2022-10-29T04:40:34;4.45;;;3.08;;
49590;SDS011;35496;-21.974;-46.800;2022-10-29T04:43:01;4.00;;;2.63;;
49590;SDS011;35496;-21.974;-46.800;2022-10-29T04:45:27;3.00;;;2.25;;
49590;SDS011;35496;-21.974;-46.800;2022-10-29T04:47:59;4.95;;;2.40;;
49590;SDS011;35496;-21.974;-46.800;2022-10-29T04:50:26;7.70;;;3.78;;
49590;SDS011;35496;-21.974;-46.800;2022-10-29T04:52:56;4.47;;;3.13;;
49590;SDS011;35496;-21.974;-46.800;2022-10-29T04:55:23;4.32;;;2.95;;
49590;SDS011;35496;-21.974;-46.800;2022-10-29T04:57:49;4.85;;;3.33;;
49590;SDS011;35496;-21.974;-46.800;2022-10-29T05:00:15;4.43;;;2.78;;
49590;SDS011;35496;-21.974;-46.800;2022-10-29T05:02:41;10.65;;;4.25;;
49590;SDS011;35496;-21.974;-46.800;2022-10-29T05:05:11;2.58;;;2.38;;
49590;SDS011;35496;-21.974;-46.800;2022-10-29T05:07:37;4.25;;;2.47;;
49590;SDS011;35496;-21.974;-46.800;2022-10-29T05:10:04;3.28;;;2.30;;
49590;SDS011;35496;-21.974;-46.800;2022-10-29T05:12:30;5.15;;;2.75;;
49590;SDS011;35496;-21.974;-46.800;2022-10-29T05:14:56;7.45;;;2.75;;
49590;SDS011;35496;-21.974;-46.800;2022-10-29T05:17:22;2.75;;;2.47;;
49590;SDS011;35496;-21.974;-46.800;2022-10-29T05:19:48;2.72;;;2.53;;
49590;SDS011;35496;-21.974;-46.800;2022-10-29T05:22:14;4.47;;;3.28;;
49590;SDS011;35496;-21.974;-46.800;2022-10-29T05:24:40;14.23;;;3.22;;
49590;SDS011;35496;-21.974;-46.800;2022-10-29T05:27:06;3.53;;;2.90;;
49590;SDS011;35496;-21.974;-46.800;2022-10-29T05:29:32;10.35;;;2.45;;
49590;SDS011;35496;-21.974;-46.800;2022-10-29T05:31:58;3.13;;;2.83;;
49590;SDS011;35496;-21.974;-46.800;2022-10-29T05:34:31;3.05;;;2.30;;
49590;SDS011;35496;-21.974;-46.800;2022-10-29T05:36:57;14.45;;;2.95;;
49590;SDS011;35496;-21.974;-46.800;2022-10-29T05:39:23;15.98;;;3.20;;
49590;SDS011;35496;-21.974;-46.800;2022-10-29T05:41:49;4.88;;;2.55;;
49590;SDS011;35496;-21.974;-46.800;2022-10-29T05:44:15;10.25;;;3.25;;
49590;SDS011;35496;-21.974;-46.800;2022-10-29T05:46:41;4.05;;;3.30;;
49590;SDS011;35496;-21.974;-46.800;2022-10-29T05:49:07;5.80;;;3.33;;
49590;SDS011;35496;-21.974;-46.800;2022-10-29T05:51:33;3.90;;;2.72;;
49590;SDS011;35496;-21.974;-46.800;2022-10-29T05:53:59;5.22;;;3.08;;
49590;SDS011;35496;-21.974;-46.800;2022-10-29T05:56:31;8.25;;;3.60;;
49590;SDS011;35496;-21.974;-46.800;2022-10-29T05:58:57;6.40;;;3.90;;
49590;SDS011;35496;-21.974;-46.800;2022-10-29T06:01:23;9.13;;;3.15;;
49590;SDS011;35496;-21.974;-46.800;2022-10-29T06:03:49;9.18;;;4.60;;
49590;SDS011;35496;-21.974;-46.800;2022-10-29T06:06:15;7.97;;;3.47;;
49590;SDS011;35496;-21.974;-46.800;2022-10-29T06:08:41;10.50;;;5.05;;
49590;SDS011;35496;-21.974;-46.800;2022-10-29T06:11:07;4.85;;;3.58;;
49590;SDS011;35496;-21.974;-46.800;2022-10-29T06:13:34;9.13;;;4.43;;
49590;SDS011;35496;-21.974;-46.800;2022-10-29T06:16:00;7.40;;;4.85;;
49590;SDS011;35496;-21.974;-46.800;2022-10-29T06:18:26;9.30;;;3.97;;
49590;SDS011;35496;-21.974;-46.800;2022-10-29T06:20:53;10.50;;;4.75;;
49590;SDS011;35496;-21.974;-46.800;2022-10-29T06:23:19;8.07;;;4.47;;
49590;SDS011;35496;-21.974;-46.800;2022-10-29T06:25:49;8.13;;;5.28;;
49590;SDS011;35496;-21.974;-46.800;2022-10-29T06:28:15;9.23;;;5.22;;
49590;SDS011;35496;-21.974;-46.800;2022-10-29T06:30:49;7.78;;;5.28;;
49590;SDS011;35496;-21.974;-46.800;2022-10-29T06:33:16;8.15;;;4.95;;
49590;SDS011;35496;-21.974;-46.800;2022-10-29T06:35:42;13.63;;;5.28;;
49590;SDS011;35496;-21.974;-46.800;2022-10-29T06:38:09;19.05;;;6.53;;
49590;SDS011;35496;-21.974;-46.800;2022-10-29T06:40:35;10.02;;;5.93;;
49590;SDS011;35496;-21.974;-46.800;2022-10-29T06:43:03;12.27;;;5.53;;
49590;SDS011;35496;-21.974;-46.800;2022-10-29T06:45:29;14.43;;;5.60;;
49590;SDS011;35496;-21.974;-46.800;2022-10-29T06:47:56;9.98;;;5.38;;
49590;SDS011;35496;-21.974;-46.800;2022-10-29T06:50:22;8.60;;;5.25;;
49590;SDS011;35496;-21.974;-46.800;2022-10-29T06:52:58;7.40;;;4.43;;
49590;SDS011;35496;-21.974;-46.800;2022-10-29T06:55:25;8.40;;;4.85;;
49590;SDS011;35496;-21.974;-46.800;2022-10-29T07:00:23;8.18;;;5.03;;
49590;SDS011;35496;-21.974;-46.800;2022-10-29T07:02:50;10.80;;;6.00;;
49590;SDS011;35496;-21.974;-46.800;2022-10-29T07:05:16;15.60;;;5.60;;
49590;SDS011;35496;-21.974;-46.800;2022-10-29T07:07:42;9.18;;;3.63;;
49590;SDS011;35496;-21.974;-46.800;2022-10-29T07:10:08;9.38;;;4.93;;
49590;SDS011;35496;-21.974;-46.800;2022-10-29T07:12:41;7.53;;;5.40;;
49590;SDS011;35496;-21.974;-46.800;2022-10-29T07:15:08;12.98;;;5.93;;
49590;SDS011;35496;-21.974;-46.800;2022-10-29T07:17:34;8.60;;;5.40;;
49590;SDS011;35496;-21.974;-46.800;2022-10-29T07:20:01;10.32;;;5.72;;
49590;SDS011;35496;-21.974;-46.800;2022-10-29T07:22:27;11.35;;;5.20;;
49590;SDS011;35496;-21.974;-46.800;2022-10-29T07:24:53;15.07;;;4.93;;
49590;SDS011;35496;-21.974;-46.800;2022-10-29T07:27:19;9.07;;;4.38;;
49590;SDS011;35496;-21.974;-46.800;2022-10-29T07:29:45;7.15;;;4.50;;
49590;SDS011;35496;-21.974;-46.800;2022-10-29T07:32:11;9.18;;;4.32;;
49590;SDS011;35496;-21.974;-46.800;2022-10-29T07:34:37;8.10;;;3.78;;
49590;SDS011;35496;-21.974;-46.800;2022-10-29T07:37:03;7.40;;;4.22;;
49590;SDS011;35496;-21.974;-46.800;2022-10-29T07:39:29;12.93;;;4.97;;
49590;SDS011;35496;-21.974;-46.800;2022-10-29T07:41:55;13.52;;;4.90;;
49590;SDS011;35496;-21.974;-46.800;2022-10-29T07:44:21;6.93;;;4.18;;
49590;SDS011;35496;-21.974;-46.800;2022-10-29T07:46:47;5.65;;;3.67;;
49590;SDS011;35496;-21.974;-46.800;2022-10-29T07:49:13;6.75;;;4.22;;
49590;SDS011;35496;-21.974;-46.800;2022-10-29T07:51:39;8.55;;;4.00;;
49590;SDS011;35496;-21.974;-46.800;2022-10-29T07:54:05;5.10;;;4.22;;
49590;SDS011;35496;-21.974;-46.800;2022-10-29T07:56:31;12.02;;;4.53;;
49590;SDS011;35496;-21.974;-46.800;2022-10-29T07:58:57;7.18;;;4.57;;
49590;SDS011;35496;-21.974;-46.800;2022-10-29T08:01:23;8.00;;;3.97;;
49590;SDS011;35496;-21.974;-46.800;2022-10-29T08:03:49;8.68;;;4.50;;
49590;SDS011;35496;-21.974;-46.800;2022-10-29T08:06:16;9.02;;;3.80;;
49590;SDS011;35496;-21.974;-46.800;2022-10-29T08:08:42;6.93;;;4.50;;
49590;SDS011;35496;-21.974;-46.800;2022-10-29T08:11:08;6.68;;;3.95;;
49590;SDS011;35496;-21.974;-46.800;2022-10-29T08:13:34;4.65;;;3.60;;
49590;SDS011;35496;-21.974;-46.800;2022-10-29T08:16:00;8.98;;;4.60;;
49590;SDS011;35496;-21.974;-46.800;2022-10-29T08:18:26;12.68;;;5.80;;
49590;SDS011;35496;-21.974;-46.800;2022-10-29T08:20:53;12.20;;;4.80;;
49590;SDS011;35496;-21.974;-46.800;2022-10-29T08:23:19;9.18;;;4.32;;
49590;SDS011;35496;-21.974;-46.800;2022-10-29T08:25:45;5.80;;;4.35;;
49590;SDS011;35496;-21.974;-46.800;2022-10-29T08:28:12;7.57;;;5.30;;
49590;SDS011;35496;-21.974;-46.800;2022-10-29T08:30:39;11.90;;;4.40;;
49590;SDS011;35496;-21.974;-46.800;2022-10-29T08:33:05;7.43;;;4.82;;
49590;SDS011;35496;-21.974;-46.800;2022-10-29T08:35:32;7.07;;;4.75;;
49590;SDS011;35496;-21.974;-46.800;2022-10-29T08:37:58;8.15;;;3.88;;
49590;SDS011;35496;-21.974;-46.800;2022-10-29T08:45:53;12.13;;;4.65;;
49590;SDS011;35496;-21.974;-46.800;2022-10-29T08:50:47;5.25;;;3.35;;
49590;SDS011;35496;-21.974;-46.800;2022-10-29T08:53:22;5.72;;;4.00;;
49590;SDS011;35496;-21.974;-46.800;2022-10-29T08:55:48;5.97;;;4.20;;
49590;SDS011;35496;-21.974;-46.800;2022-10-29T08:58:20;9.52;;;4.25;;
49590;SDS011;35496;-21.974;-46.800;2022-10-29T09:00:47;7.07;;;3.72;;
49590;SDS011;35496;-21.974;-46.800;2022-10-29T09:03:16;10.10;;;5.05;;
49590;SDS011;35496;-21.974;-46.800;2022-10-29T09:05:55;10.80;;;4.95;;
49590;SDS011;35496;-21.974;-46.800;2022-10-29T09:08:28;7.38;;;4.80;;
49590;SDS011;35496;-21.974;-46.800;2022-10-29T09:10:56;5.53;;;4.47;;
49590;SDS011;35496;-21.974;-46.800;2022-10-29T09:16:09;7.38;;;4.45;;
49590;SDS011;35496;-21.974;-46.800;2022-10-29T09:24:12;6.30;;;4.18;;
49590;SDS011;35496;-21.974;-46.800;2022-10-29T09:29:10;8.50;;;4.35;;
49590;SDS011;35496;-21.974;-46.800;2022-10-29T09:31:52;4.45;;;3.42;;
49590;SDS011;35496;-21.974;-46.800;2022-10-29T09:34:41;5.20;;;3.28;;
49590;SDS011;35496;-21.974;-46.800;2022-10-29T09:37:11;6.60;;;4.40;;
49590;SDS011;35496;-21.974;-46.800;2022-10-29T09:39:39;6.93;;;4.45;;
49590;SDS011;35496;-21.974;-46.800;2022-10-29T09:42:10;7.75;;;3.78;;
49590;SDS011;35496;-21.974;-46.800;2022-10-29T09:44:38;4.07;;;3.17;;
49590;SDS011;35496;-21.974;-46.800;2022-10-29T09:47:16;4.65;;;4.20;;
49590;SDS011;35496;-21.974;-46.800;2022-10-29T09:49:48;5.00;;;3.30;;
49590;SDS011;35496;-21.974;-46.800;2022-10-29T09:52:22;8.10;;;3.65;;
49590;SDS011;35496;-21.974;-46.800;2022-10-29T09:54:48;4.33;;;3.53;;
49590;SDS011;35496;-21.974;-46.800;2022-10-29T09:57:19;9.48;;;3.65;;
49590;SDS011;35496;-21.974;-46.800;2022-10-29T09:59:47;5.63;;;4.57;;
49590;SDS011;35496;-21.974;-46.800;2022-10-29T10:02:26;6.60;;;3.63;;
49590;SDS011;35496;-21.974;-46.800;2022-10-29T10:07:37;13.18;;;4.18;;
49590;SDS011;35496;-21.974;-46.800;2022-10-29T10:10:04;4.78;;;4.00;;
49590;SDS011;35496;-21.974;-46.800;2022-10-29T10:18:00;5.78;;;3.60;;
49590;SDS011;35496;-21.974;-46.800;2022-10-29T10:22:53;7.03;;;3.15;;
49590;SDS011;35496;-21.974;-46.800;2022-10-29T10:25:36;4.07;;;3.58;;
49590;SDS011;35496;-21.974;-46.800;2022-10-29T10:28:24;5.10;;;3.85;;
49590;SDS011;35496;-21.974;-46.800;2022-10-29T10:33:51;3.58;;;3.22;;
49590;SDS011;35496;-21.974;-46.800;2022-10-29T10:36:21;8.30;;;4.18;;
49590;SDS011;35496;-21.974;-46.800;2022-10-29T10:38:49;7.00;;;3.65;;
49590;SDS011;35496;-21.974;-46.800;2022-10-29T10:41:20;5.38;;;3.72;;
49590;SDS011;35496;-21.974;-46.800;2022-10-29T10:43:46;5.18;;;4.22;;
49590;SDS011;35496;-21.974;-46.800;2022-10-29T10:46:31;12.07;;;4.75;;
49590;SDS011;35496;-21.974;-46.800;2022-10-29T10:48:59;7.20;;;4.10;;
49590;SDS011;35496;-21.974;-46.800;2022-10-29T10:51:31;6.80;;;4.25;;
49590;SDS011;35496;-21.974;-46.800;2022-10-29T10:53:58;5.35;;;3.50;;
49590;SDS011;35496;-21.974;-46.800;2022-10-29T10:56:25;6.93;;;4.55;;
49590;SDS011;35496;-21.974;-46.800;2022-10-29T10:58:59;4.80;;;3.42;;
49590;SDS011;35496;-21.974;-46.800;2022-10-29T11:01:42;6.40;;;4.03;;
49590;SDS011;35496;-21.974;-46.800;2022-10-29T11:04:18;6.63;;;3.47;;
49590;SDS011;35496;-21.974;-46.800;2022-10-29T11:06:47;3.78;;;3.40;;
49590;SDS011;35496;-21.974;-46.800;2022-10-29T11:14:31;4.35;;;3.40;;
49590;SDS011;35496;-21.974;-46.800;2022-10-29T11:17:00;4.38;;;3.35;;
49590;SDS011;35496;-21.974;-46.800;2022-10-29T11:19:35;5.15;;;3.67;;
49590;SDS011;35496;-21.974;-46.800;2022-10-29T11:25:18;6.47;;;3.40;;
49590;SDS011;35496;-21.974;-46.800;2022-10-29T11:27:24;4.82;;;3.28;;
49590;SDS011;35496;-21.974;-46.800;2022-10-29T11:30:05;5.40;;;3.30;;
49590;SDS011;35496;-21.974;-46.800;2022-10-29T11:38:01;2.95;;;2.75;;
49590;SDS011;35496;-21.974;-46.800;2022-10-29T11:42:55;3.95;;;3.22;;
49590;SDS011;35496;-21.974;-46.800;2022-10-29T11:50:43;3.08;;;2.78;;
49590;SDS011;35496;-21.974;-46.800;2022-10-29T12:03:37;3.28;;;2.55;;
49590;SDS011;35496;-21.974;-46.800;2022-10-29T12:08:37;3.08;;;2.70;;
49590;SDS011;35496;-21.974;-46.800;2022-10-29T12:14:26;2.95;;;2.65;;
49590;SDS011;35496;-21.974;-46.800;2022-10-29T12:17:04;7.20;;;2.72;;
49590;SDS011;35496;-21.974;-46.800;2022-10-29T12:19:40;2.92;;;2.67;;
49590;SDS011;35496;-21.974;-46.800;2022-10-29T12:30:24;2.80;;;2.15;;
49590;SDS011;35496;-21.974;-46.800;2022-10-29T12:37:50;4.45;;;2.40;;
49590;SDS011;35496;-21.974;-46.800;2022-10-29T12:40:27;5.00;;;3.05;;
49590;SDS011;35496;-21.974;-46.800;2022-10-29T12:42:55;3.72;;;2.13;;
49590;SDS011;35496;-21.974;-46.800;2022-10-29T12:45:29;12.05;;;2.10;;
49590;SDS011;35496;-21.974;-46.800;2022-10-29T12:48:07;3.35;;;2.33;;
49590;SDS011;35496;-21.974;-46.800;2022-10-29T12:55:27;3.70;;;2.22;;
49590;SDS011;35496;-21.974;-46.800;2022-10-29T12:57:54;2.42;;;2.25;;
49590;SDS011;35496;-21.974;-46.800;2022-10-29T13:02:52;2.15;;;1.98;;
49590;SDS011;35496;-21.974;-46.800;2022-10-29T13:15:29;2.42;;;1.77;;
49590;SDS011;35496;-21.974;-46.800;2022-10-29T13:17:58;1.50;;;1.40;;
49590;SDS011;35496;-21.974;-46.800;2022-10-29T13:22:56;2.00;;;1.75;;
49590;SDS011;35496;-21.974;-46.800;2022-10-29T13:30:35;2.67;;;1.95;;
49590;SDS011;35496;-21.974;-46.800;2022-10-29T13:35:51;5.50;;;2.10;;
49590;SDS011;35496;-21.974;-46.800;2022-10-29T13:38:17;3.28;;;2.97;;
49590;SDS011;35496;-21.974;-46.800;2022-10-29T13:43:18;2.13;;;1.92;;
49590;SDS011;35496;-21.974;-46.800;2022-10-29T13:45:47;1.88;;;1.60;;
49590;SDS011;35496;-21.974;-46.800;2022-10-29T13:48:31;1.63;;;1.52;;
49590;SDS011;35496;-21.974;-46.800;2022-10-29T13:50:59;3.63;;;2.08;;
49590;SDS011;35496;-21.974;-46.800;2022-10-29T13:53:30;3.58;;;2.33;;
49590;SDS011;35496;-21.974;-46.800;2022-10-29T13:55:59;2.35;;;2.20;;
49590;SDS011;35496;-21.974;-46.800;2022-10-29T13:58:30;2.40;;;2.25;;
49590;SDS011;35496;-21.974;-46.800;2022-10-29T14:00:57;1.92;;;1.77;;
49590;SDS011;35496;-21.974;-46.800;2022-10-29T14:03:32;2.28;;;1.67;;
49590;SDS011;35496;-21.974;-46.800;2022-10-29T14:06:15;2.83;;;1.90;;
49590;SDS011;35496;-21.974;-46.800;2022-10-29T14:08:47;1.30;;;1.30;;
49590;SDS011;35496;-21.974;-46.800;2022-10-29T14:11:18;1.73;;;1.63;;
49590;SDS011;35496;-21.974;-46.800;2022-10-29T14:13:48;7.65;;;2.17;;
49590;SDS011;35496;-21.974;-46.800;2022-10-29T14:16:14;1.48;;;1.38;;
49590;SDS011;35496;-21.974;-46.800;2022-10-29T14:18:42;3.03;;;1.40;;
49590;SDS011;35496;-21.974;-46.800;2022-10-29T14:21:21;2.88;;;2.05;;
49590;SDS011;35496;-21.974;-46.800;2022-10-29T14:24:20;1.73;;;1.58;;
49590;SDS011;35496;-21.974;-46.800;2022-10-29T14:26:40;1.92;;;1.83;;
49590;SDS011;35496;-21.974;-46.800;2022-10-29T14:29:15;3.25;;;1.92;;
49590;SDS011;35496;-21.974;-46.800;2022-10-29T14:31:43;2.75;;;1.83;;
49590;SDS011;35496;-21.974;-46.800;2022-10-29T14:34:30;2.45;;;1.70;;
49590;SDS011;35496;-21.974;-46.800;2022-10-29T14:36:57;2.72;;;1.67;;
49590;SDS011;35496;-21.974;-46.800;2022-10-29T14:39:30;3.00;;;2.25;;
49590;SDS011;35496;-21.974;-46.800;2022-10-29T14:41:58;2.28;;;1.63;;
49590;SDS011;35496;-21.974;-46.800;2022-10-29T14:44:31;1.80;;;1.40;;
49590;SDS011;35496;-21.974;-46.800;2022-10-29T14:47:10;2.50;;;1.75;;
49590;SDS011;35496;-21.974;-46.800;2022-10-29T14:49:39;6.33;;;2.00;;
49590;SDS011;35496;-21.974;-46.800;2022-10-29T14:52:06;3.08;;;2.13;;
49590;SDS011;35496;-21.974;-46.800;2022-10-29T14:54:39;3.13;;;1.60;;
49590;SDS011;35496;-21.974;-46.800;2022-10-29T14:57:13;1.73;;;1.63;;
49590;SDS011;35496;-21.974;-46.800;2022-10-29T14:59:44;6.50;;;2.28;;
49590;SDS011;35496;-21.974;-46.800;2022-10-29T15:02:11;2.47;;;1.67;;
49590;SDS011;35496;-21.974;-46.800;2022-10-29T15:04:54;2.75;;;1.58;;
49590;SDS011;35496;-21.974;-46.800;2022-10-29T15:09:50;2.72;;;1.70;;
49590;SDS011;35496;-21.974;-46.800;2022-10-29T15:12:34;1.75;;;1.55;;
49590;SDS011;35496;-21.974;-46.800;2022-10-29T15:15:19;6.53;;;1.83;;
49590;SDS011;35496;-21.974;-46.800;2022-10-29T15:20:24;3.33;;;1.60;;
49590;SDS011;35496;-21.974;-46.800;2022-10-29T15:22:51;2.13;;;1.27;;
49590;SDS011;35496;-21.974;-46.800;2022-10-29T15:25:23;1.45;;;1.30;;
49590;SDS011;35496;-21.974;-46.800;2022-10-29T15:27:50;1.60;;;1.50;;
49590;SDS011;35496;-21.974;-46.800;2022-10-29T15:30:21;3.17;;;1.48;;
49590;SDS011;35496;-21.974;-46.800;2022-10-29T15:32:56;2.55;;;2.35;;
49590;SDS011;35496;-21.974;-46.800;2022-10-29T15:35:22;1.63;;;1.52;;
49590;SDS011;35496;-21.974;-46.800;2022-10-29T15:37:49;1.73;;;1.60;;
49590;SDS011;35496;-21.974;-46.800;2022-10-29T15:40:16;1.90;;;1.80;;
49590;SDS011;35496;-21.974;-46.800;2022-10-29T15:42:43;2.55;;;1.38;;
49590;SDS011;35496;-21.974;-46.800;2022-10-29T15:50:37;4.32;;;1.77;;
49590;SDS011;35496;-21.974;-46.800;2022-10-29T15:53:04;1.20;;;1.10;;
49590;SDS011;35496;-21.974;-46.800;2022-10-29T15:55:35;8.02;;;1.88;;
49590;SDS011;35496;-21.974;-46.800;2022-10-29T15:58:04;6.53;;;2.17;;
49590;SDS011;35496;-21.974;-46.800;2022-10-29T16:00:30;4.20;;;1.80;;
49590;SDS011;35496;-21.974;-46.800;2022-10-29T16:03:04;1.95;;;1.85;;
49590;SDS011;35496;-21.974;-46.800;2022-10-29T16:05:31;5.22;;;1.40;;
49590;SDS011;35496;-21.974;-46.800;2022-10-29T16:07:57;4.47;;;1.70;;
49590;SDS011;35496;-21.974;-46.800;2022-10-29T16:10:25;2.20;;;2.00;;
49590;SDS011;35496;-21.974;-46.800;2022-10-29T16:12:51;2.42;;;1.65;;
49590;SDS011;35496;-21.974;-46.800;2022-10-29T16:15:18;3.28;;;1.63;;
49590;SDS011;35496;-21.974;-46.800;2022-10-29T16:17:44;2.83;;;2.05;;
49590;SDS011;35496;-21.974;-46.800;2022-10-29T16:20:12;3.30;;;2.35;;
49590;SDS011;35496;-21.974;-46.800;2022-10-29T16:22:38;2.20;;;1.60;;
49590;SDS011;35496;-21.974;-46.800;2022-10-29T16:25:05;3.28;;;2.25;;
49590;SDS011;35496;-21.974;-46.800;2022-10-29T16:27:31;2.30;;;1.52;;
49590;SDS011;35496;-21.974;-46.800;2022-10-29T16:29:57;1.73;;;1.63;;
49590;SDS011;35496;-21.974;-46.800;2022-10-29T16:32:23;1.67;;;1.58;;
49590;SDS011;35496;-21.974;-46.800;2022-10-29T16:34:49;2.30;;;1.40;;
49590;SDS011;35496;-21.974;-46.800;2022-10-29T16:37:17;6.60;;;1.90;;
49590;SDS011;35496;-21.974;-46.800;2022-10-29T16:39:43;3.92;;;1.95;;
49590;SDS011;35496;-21.974;-46.800;2022-10-29T16:42:22;1.63;;;1.52;;
49590;SDS011;35496;-21.974;-46.800;2022-10-29T16:44:51;2.25;;;1.40;;
49590;SDS011;35496;-21.974;-46.800;2022-10-29T16:47:17;2.53;;;1.67;;
49590;SDS011;35496;-21.974;-46.800;2022-10-29T16:49:43;2.75;;;1.98;;
49590;SDS011;35496;-21.974;-46.800;2022-10-29T16:52:09;1.80;;;1.70;;
49590;SDS011;35496;-21.974;-46.800;2022-10-29T16:54:35;2.15;;;1.58;;